Time;durP1;ratioP1;P1;durP2;ratioP2;P2;SDS_P1;SDS_P2;PMS_P1;PMS_P2;Temp;Humidity;BMP_temperature;BMP_pressure;BME280_temperature;BME280_humidity;BME280_pressure;Samples;Min_cycle;Max_cycle;Signal;HPM_P1;HPM_P2
2022/06/21 00:08:16;;;;;;;;;;;;;;;;;;;;;
2022/06/21 00:15:12;;;;;;;5.60;1.30;;;;;;;12.03;68.82;98610.98;108774;1283;22501;-88
2022/06/21 00:18:11;;;;;;;6.20;1.60;;;;;;;12.03;68.81;98627.53;108695;1284;22280;-84
2022/06/21 00:21:17;;;;;;;;;;;;;;;;;;;;;
2022/06/21 00:24:21;;;;;;;;;;;;;;;;;;;;;
2022/06/21 00:27:38;;;;;;;;;;;;;;;;;;;;;
2022/06/21 00:31:02;;;;;;;;;;;;;;;;;;;;;
2022/06/21 00:38:00;;;;;;;7.50;1.90;;;;;;;11.71;68.91;98643.65;107421;1293;22292;-84
2022/06/21 00:40:59;;;;;;;5.90;1.70;;;;;;;11.63;68.99;98643.02;107333;1294;22279;-85
2022/06/21 00:43:39;;;;;;;4.80;1.20;;;;;;;11.52;68.87;98642.98;107523;1291;22357;-87
2022/06/21 00:47:31;;;;;;;;;;;;;;;;;;;;;
2022/06/21 00:50:51;;;;;;;5.60;1.70;;;;;;;11.35;69.14;98634.13;107334;1297;22569;-85
2022/06/21 00:53:53;;;;;;;4.50;1.50;;;;;;;11.37;69.33;98629.11;106738;1303;22315;-85
2022/06/21 00:56:58;;;;;;;9.30;2.10;;;;;;;11.47;69.35;98637.92;106744;1303;23040;-85
2022/06/21 01:00:20;;;;;;;;;;;;;;;;;;;;;
2022/06/21 01:03:13;;;;;;;7.20;2.30;;;;;;;11.62;69.33;98636.50;106701;1304;22995;-85
2022/06/21 01:06:14;;;;;;;7.70;1.60;;;;;;;11.71;69.32;98633.67;106577;1305;22964;-84
2022/06/21 01:09:22;;;;;;;;;;;;;;;;;;;;;
2022/06/21 01:12:37;;;;;;;;;;;;;;;;;;;;;
2022/06/21 01:20:17;;;;;;;5.30;1.50;;;;;;;11.92;69.22;98627.91;109068;1281;22355;-88
2022/06/21 01:23:55;;;;;;;7.80;1.70;;;;;;;11.92;69.20;98629.05;108959;1280;22445;-86
2022/06/21 01:28:07;;;;;;;;;;;;;;;;;;;;;
2022/06/21 01:40:55;;;;;;;6.00;1.80;;;;;;;11.98;69.34;98636.37;109214;1280;23183;-85
2022/06/21 01:49:02;;;;;;;;;;;;;;;;;;;;;
2022/06/21 01:57:01;;;;;;;;;;;;;;;;;;;;;
2022/06/21 02:00:36;;;;;;;;;;;;;;;;;;;;;
2022/06/21 02:11:22;;;;;;;;;;;;;;;;;;;;;
2022/06/21 02:18:56;;;;;;;7.50;2.30;;;;;;;11.53;69.48;98657.58;108150;1290;22416;-86
2022/06/21 02:27:04;;;;;;;;;;;;;;;;;;;;;
2022/06/21 02:40:31;;;;;;;;;;;;;;;;;;;;;
2022/06/21 02:44:10;;;;;;;;;;;;;;;;;;;;;
2022/06/21 02:51:33;;;;;;;5.30;1.10;;;;;;;11.39;69.63;98662.10;106273;1311;22217;-87
2022/06/21 02:54:46;;;;;;;5.20;1.90;;;;;;;11.41;69.64;98666.20;106137;1312;22274;-86
2022/06/21 02:57:43;;;;;;;5.70;1.90;;;;;;;11.42;69.54;98666.67;105958;1312;22235;-85
2022/06/21 03:00:33;;;;;;;7.10;1.80;;;;;;;11.41;69.44;98665.02;106118;1312;22361;-87
2022/06/21 03:13:06;;;;;;;7.20;1.70;;;;;;;11.38;69.43;98655.77;105454;1314;22259;-88
2022/06/21 03:16:20;;;;;;;;;;;;;;;;;;;;;
2022/06/21 03:19:11;;;;;;;11.20;2.00;;;;;;;11.40;69.56;98653.33;106263;1303;22584;-86
2022/06/21 03:22:13;;;;;;;6.50;1.90;;;;;;;11.39;69.46;98648.58;106947;1302;23306;-82
2022/06/21 03:24:44;;;;;;;6.10;1.60;;;;;;;11.41;69.60;98653.73;107607;1293;22743;-87
2022/06/21 03:27:53;;;;;;;9.00;1.80;;;;;;;11.41;69.48;98648.90;108000;1290;22221;-86
2022/06/21 03:30:50;;;;;;;7.20;1.70;;;;;;;11.43;69.55;98655.39;107731;1290;23113;-85
2022/06/21 03:33:36;;;;;;;5.30;1.50;;;;;;;11.47;69.52;98655.04;107709;1290;22314;-86
2022/06/21 03:36:25;;;;;;;6.40;1.90;;;;;;;11.50;69.40;98660.61;107650;1290;23076;-88
2022/06/21 03:41:42;;;;;;;9.70;1.80;;;;;;;11.53;69.48;98662.91;107741;1290;22492;-85
2022/06/21 03:42:41;;;;;;;5.60;1.60;;;;;;;11.55;69.54;98671.30;107753;1285;22599;-89
2022/06/21 03:46:12;;;;;;;4.30;1.00;;;;;;;11.53;69.32;98661.81;108561;1285;22276;-88
2022/06/21 03:49:20;;;;;;;;;;;;;;;;;;;;;
2022/06/21 03:51:51;;;;;;;4.60;1.50;;;;;;;11.64;69.32;98673.39;108461;1285;22402;-86
2022/06/21 03:58:56;;;;;;;5.60;1.40;;;;;;;11.79;69.22;98666.63;107731;1292;22852;-89
2022/06/21 04:04:41;;;;;;;5.10;1.70;;;;;;;11.92;69.20;98669.00;107658;1292;22235;-90
2022/06/21 04:07:41;;;;;;;5.40;1.70;;;;;;;11.97;69.17;98668.02;107523;1294;22205;-87
2022/06/21 04:10:59;;;;;;;6.40;1.60;;;;;;;12.06;69.09;98676.20;107620;1292;23164;-87
2022/06/21 04:13:50;;;;;;;4.10;1.40;;;;;;;12.16;69.05;98674.04;107665;1293;22345;-87
2022/06/21 04:17:06;;;;;;;4.20;1.40;;;;;;;12.24;68.98;98674.82;107466;1292;22190;-91
2022/06/21 04:19:48;;;;;;;4.20;1.50;;;;;;;12.32;68.98;98675.42;107479;1293;22252;-88
2022/06/21 04:22:39;;;;;;;5.10;1.80;;;;;;;12.35;68.92;98673.20;107521;1293;22222;-86
2022/06/21 04:25:37;;;;;;;4.90;1.30;;;;;;;12.42;68.98;98670.43;107412;1293;22514;-87
2022/06/21 04:33:32;;;;;;;;;;;;;;;;;;;;;
2022/06/21 04:36:24;;;;;;;6.50;2.00;;;;;;;12.74;68.61;98678.95;108023;1287;22503;-87
2022/06/21 04:43:36;;;;;;;7.50;1.90;;;;;;;12.93;68.25;98687.26;108598;1284;22351;-89
2022/06/21 04:49:41;;;;;;;6.40;2.10;;;;;;;13.10;68.27;98696.44;107801;1290;22404;-87
2022/06/21 04:52:30;;;;;;;5.60;2.10;;;;;;;13.17;68.24;98695.00;108059;1290;22289;-86
2022/06/21 04:59:39;;;;;;;7.30;2.40;;;;;;;13.42;67.81;98690.95;107351;1296;22344;-85
2022/06/21 05:04:10;;;;;;;6.70;2.10;;;;;;;13.59;67.95;98691.41;107269;1285;23036;-87
2022/06/21 05:06:52;;;;;;;5.60;1.90;;;;;;;13.56;67.77;98689.17;107498;1295;22663;-87
2022/06/21 05:14:08;;;;;;;6.80;2.20;;;;;;;13.80;67.58;98689.46;106985;1303;22315;-86
2022/06/21 05:21:34;;;;;;;6.70;2.30;;;;;;;14.20;67.13;98688.99;106695;1305;22099;-88
2022/06/21 05:24:25;;;;;;;5.90;2.30;;;;;;;14.32;66.98;98687.89;106570;1308;22254;-85
2022/06/21 05:28:13;;;;;;;7.60;2.50;;;;;;;14.32;66.88;98681.04;106752;1306;22252;-90
2022/06/21 05:39:10;;;;;;;6.60;2.00;;;;;;;14.67;66.74;98686.48;106139;1314;22332;-89
2022/06/21 05:42:32;;;;;;;6.80;2.10;;;;;;;14.73;65.69;98699.69;106253;1312;22376;-90
2022/06/21 05:49:11;;;;;;;;;;;;;;;;;;;;;
2022/06/21 05:57:23;;;;;;;6.00;2.00;;;;;;;14.75;65.38;98700.88;106792;1306;22337;-92
2022/06/21 05:59:36;;;;;;;8.40;2.00;;;;;;;14.85;66.66;98702.45;107727;1294;22402;-83
2022/06/21 06:10:42;;;;;;;;;;;;;;;;;;;;;
2022/06/21 06:23:05;;;;;;;;;;;;;;;;;;;;;
2022/06/21 06:26:30;;;;;;;4.70;1.50;;;;;;;15.48;65.94;98729.38;106694;1294;22533;-88
2022/06/21 06:29:37;;;;;;;4.50;1.20;;;;;;;15.55;65.56;98731.93;107648;1294;22176;-87
2022/06/21 06:32:18;;;;;;;7.10;1.60;;;;;;;15.70;65.19;98731.67;107530;1293;22369;-86
2022/06/21 06:34:52;;;;;;;7.00;1.10;;;;;;;15.71;65.02;98716.87;107702;1294;22174;-89
2022/06/21 06:37:42;;;;;;;6.90;1.20;;;;;;;15.85;64.87;98723.42;107639;1293;23215;-85
2022/06/21 06:40:35;;;;;;;4.50;1.20;;;;;;;15.98;65.20;98724.27;107550;1293;22397;-86
2022/06/21 06:43:20;;;;;;;4.80;1.40;;;;;;;16.01;64.79;98725.39;107783;1293;22346;-87
2022/06/21 06:45:58;;;;;;;6.90;1.40;;;;;;;16.16;64.28;98733.77;108025;1293;22775;-89
2022/06/21 06:48:44;;;;;;;;;;;;;;;;;;;;;
2022/06/21 06:51:43;;;;;;;4.90;1.20;;;;;;;16.31;64.99;98730.98;107789;1293;22197;-86
2022/06/21 07:00:27;;;;;;;5.80;1.40;;;;;;;16.25;63.92;98731.02;105393;1309;545633;-91
2022/06/21 07:03:50;;;;;;;;;;;;;;;;;;;;;
2022/06/21 07:06:49;;;;;;;4.40;1.20;;;;;;;16.29;63.75;98727.55;106459;1290;22567;-87
2022/06/21 07:09:30;;;;;;;5.40;1.50;;;;;;;16.35;63.54;98734.15;105860;1290;22832;-89
2022/06/21 07:13:10;;;;;;;3.90;1.10;;;;;;;16.19;63.73;98737.20;105934;1290;22563;-88
2022/06/21 07:16:06;;;;;;;7.30;1.40;;;;;;;16.17;62.51;98742.85;103472;1293;22645;-84
2022/06/21 07:19:23;;;;;;;4.80;1.20;;;;;;;15.95;63.22;98735.88;105609;1292;22878;-92
2022/06/21 07:22:27;;;;;;;5.60;1.60;;;;;;;16.19;63.51;98734.39;105568;1292;22595;-91
2022/06/21 07:25:23;;;;;;;4.00;1.20;;;;;;;16.45;63.10;98730.83;105911;1286;22575;-90
2022/06/21 07:28:47;;;;;;;3.30;1.30;;;;;;;16.54;63.33;98729.10;106184;1286;22623;-94
2022/06/21 07:31:28;;;;;;;3.40;1.30;;;;;;;16.89;63.61;98732.98;106122;1286;22596;-92
2022/06/21 07:34:25;;;;;;;7.20;1.40;;;;;;;17.13;63.03;98734.88;107677;1283;22742;-89
2022/06/21 07:37:36;;;;;;;5.80;1.50;;;;;;;17.41;62.65;98734.89;105861;1283;22631;-90
2022/06/21 07:40:53;;;;;;;4.30;1.30;;;;;;;17.66;62.86;98725.59;106636;1281;22573;-86
2022/06/21 07:43:59;;;;;;;5.90;1.60;;;;;;;17.71;61.56;98732.25;106237;1281;22748;-90
2022/06/21 07:46:59;;;;;;;6.90;1.60;;;;;;;17.53;62.07;98736.33;106312;1281;24566;-90
2022/06/21 07:50:44;;;;;;;6.10;1.10;;;;;;;17.62;61.04;98736.33;105690;1288;22840;-91
2022/06/21 07:54:12;;;;;;;5.20;1.50;;;;;;;17.23;61.53;98739.38;105929;1285;22604;-91
2022/06/21 07:57:13;;;;;;;3.60;1.40;;;;;;;17.04;61.61;98742.58;106166;1287;23791;-89
2022/06/21 08:07:29;;;;;;;4.40;1.40;;;;;;;17.06;60.64;98757.46;104704;1294;22554;-87
2022/06/21 08:11:03;;;;;;;6.40;1.40;;;;;;;17.13;61.72;98758.55;105476;1293;25322;-89
2022/06/21 08:14:10;;;;;;;;;;;;;;;;;;;;;
2022/06/21 08:18:06;;;;;;;3.90;1.20;;;;;;;17.92;60.86;98744.42;105151;1294;22614;-90
2022/06/21 08:21:24;;;;;;;;;;;;;;;;;;;;;
2022/06/21 08:25:33;;;;;;;;;;;;;;;;;;;;;
2022/06/21 08:29:37;;;;;;;6.70;1.50;;;;;;;17.75;61.10;98760.73;107751;1262;22591;-88
2022/06/21 08:32:40;;;;;;;3.80;1.30;;;;;;;17.91;61.37;98759.14;106245;1284;24334;-89
2022/06/21 08:35:49;;;;;;;4.50;1.50;;;;;;;18.15;60.67;98754.58;106298;1284;22541;-89
2022/06/21 08:40:11;;;;;;;5.80;1.30;;;;;;;18.46;60.32;98751.95;105817;1284;22569;-89
2022/06/21 08:43:21;;;;;;;5.20;1.40;;;;;;;19.06;60.43;98757.36;105590;1290;22657;-87
2022/06/21 08:46:25;;;;;;;5.00;1.20;;;;;;;19.19;59.46;98755.34;105183;1290;22877;-83
2022/06/21 08:49:28;;;;;;;4.50;1.20;;;;;;;19.04;59.20;98762.09;104676;1290;24268;-88
2022/06/21 08:56:03;;;;;;;6.30;1.30;;;;;;;19.10;59.71;98763.58;105874;1290;22890;-89
2022/06/21 08:59:38;;;;;;;4.90;1.30;;;;;;;18.97;59.83;98763.27;106071;1291;22804;-87
2022/06/21 09:02:14;;;;;;;3.80;0.90;;;;;;;18.94;58.33;98763.59;104852;1290;25830;-85
2022/06/21 09:05:22;;;;;;;5.80;1.20;;;;;;;18.61;58.58;98764.73;105344;1290;22715;-84
2022/06/21 09:08:49;;;;;;;3.20;1.10;;;;;;;18.77;58.58;98756.10;105030;1285;22581;-82
2022/06/21 09:12:01;;;;;;;5.10;0.90;;;;;;;19.11;58.72;98755.48;105378;1284;22618;-87
2022/06/21 09:16:19;;;;;;;5.10;1.30;;;;;;;19.14;58.76;98758.55;105571;1278;22734;-87
2022/06/21 09:18:43;;;;;;;3.80;0.90;;;;;;;19.24;58.43;98766.92;106743;1274;22547;-85
2022/06/21 09:22:08;;;;;;;4.80;1.20;;;;;;;19.54;58.93;98766.52;106765;1274;24189;-86
2022/06/21 09:24:58;;;;;;;5.00;1.00;;;;;;;19.60;57.41;98769.32;106335;1278;24384;-83
2022/06/21 09:28:04;;;;;;;5.30;1.30;;;;;;;19.47;58.32;98766.43;106077;1276;24126;-86
2022/06/21 09:31:00;;;;;;;4.80;1.00;;;;;;;19.62;58.00;98771.55;106149;1277;24302;-88
2022/06/21 09:34:17;;;;;;;4.00;0.90;;;;;;;19.75;57.93;98765.48;106252;1273;22534;-84
2022/06/21 09:37:07;;;;;;;3.90;0.90;;;;;;;20.08;57.85;98762.36;106569;1274;22557;-89
2022/06/21 09:40:37;;;;;;;;;;;;;;;;;;;;;
2022/06/21 09:44:09;;;;;;;4.20;1.00;;;;;;;19.62;57.06;98780.12;106647;1273;23418;-88
2022/06/21 09:47:34;;;;;;;3.40;0.80;;;;;;;19.29;57.34;98772.84;105589;1281;23179;-86
2022/06/21 09:50:46;;;;;;;4.80;1.30;;;;;;;19.07;57.33;98780.56;105640;1281;23920;-89
2022/06/21 09:54:41;;;;;;;4.50;1.50;;;;;;;19.42;58.23;98773.48;105802;1280;25242;-90
2022/06/21 09:57:49;;;;;;;6.50;1.30;;;;;;;19.96;57.23;98774.96;105800;1281;23851;-85
2022/06/21 10:01:05;;;;;;;3.30;1.10;;;;;;;20.01;56.73;98772.91;105563;1281;25960;-86
2022/06/21 10:04:28;;;;;;;;;;;;;;;;;;;;;
2022/06/21 10:07:47;;;;;;;4.50;1.10;;;;;;;19.91;56.68;98775.30;106104;1281;22553;-86
2022/06/21 10:11:23;;;;;;;5.00;1.00;;;;;;;19.71;56.84;98781.24;105415;1283;23967;-88
2022/06/21 10:14:44;;;;;;;3.60;0.90;;;;;;;20.00;56.33;98786.06;105655;1281;22818;-84
2022/06/21 10:18:12;;;;;;;5.10;1.20;;;;;;;19.71;55.93;98792.14;105609;1281;24224;-87
2022/06/21 10:21:31;;;;;;;;;;;;;;;;;;;;;
2022/06/21 10:24:46;;;;;;;5.50;1.10;;;;;;;19.61;56.74;98788.11;106720;1281;22571;-90
2022/06/21 10:28:46;;;;;;;;;;;;;;;;;;;;;
2022/06/21 10:32:21;;;;;;;;;;;;;;;;;;;;;
2022/06/21 10:36:00;;;;;;;;;;;;;;;;;;;;;
2022/06/21 10:39:32;;;;;;;3.20;1.10;;;;;;;20.72;55.52;98776.15;106128;1282;25380;-90
2022/06/21 10:46:38;;;;;;;3.60;1.00;;;;;;;20.84;54.76;98769.01;107241;1282;22632;-88
2022/06/21 10:50:13;;;;;;;;;;;;;;;;;;;;;
2022/06/21 10:53:49;;;;;;;;;;;;;;;;;;;;;
2022/06/21 10:57:29;;;;;;;;;;;;;;;;;;;;;
2022/06/21 11:04:59;;;;;;;;;;;;;;;;;;;;;
2022/06/21 11:08:23;;;;;;;;;;;;;;;;;;;;;
2022/06/21 11:11:58;;;;;;;4.90;1.00;;;;;;;20.01;53.61;98784.85;105672;1281;22566;-86
2022/06/21 11:15:34;;;;;;;;;;;;;;;;;;;;;
2022/06/21 11:19:44;;;;;;;;;;;;;;;;;;;;;
2022/06/21 11:23:15;;;;;;;;;;;;;;;;;;;;;
2022/06/21 11:26:38;;;;;;;3.50;0.90;;;;;;;21.21;53.30;98772.12;105730;1294;22571;-82
2022/06/21 11:30:19;;;;;;;5.90;0.90;;;;;;;21.16;52.69;98775.18;105316;1288;25496;-89
2022/06/21 11:34:02;;;;;;;4.40;1.00;;;;;;;20.98;53.22;98772.36;105947;1287;22604;-90
2022/06/21 11:37:37;;;;;;;4.90;1.00;;;;;;;21.08;53.90;98766.02;105209;1294;22515;-91
2022/06/21 11:44:28;;;;;;;5.60;1.00;;;;;;;21.24;52.99;98766.98;104408;1300;22668;-89
2022/06/21 11:47:20;;;;;;;6.80;0.90;;;;;;;21.11;52.85;98773.37;104673;1300;22582;-93
2022/06/21 11:50:22;;;;;;;3.10;0.80;;;;;;;21.12;52.22;98770.39;104483;1300;22589;-92
2022/06/21 11:53:46;;;;;;;6.20;0.90;;;;;;;21.41;51.25;98769.76;105311;1287;22554;-91
2022/06/21 11:57:36;;;;;;;;;;;;;;;;;;;;;
2022/06/21 12:00:52;;;;;;;3.60;0.90;;;;;;;21.71;51.62;98758.86;105759;1288;22765;-89
2022/06/21 12:03:59;;;;;;;5.10;0.70;;;;;;;21.61;52.15;98761.66;106458;1288;26850;-85
2022/06/21 12:07:09;;;;;;;;;;;;;;;;;;;;;
2022/06/21 12:10:35;;;;;;;3.60;1.10;;;;;;;21.90;51.47;98764.54;106302;1288;22571;-93
2022/06/21 12:14:37;;;;;;;6.00;1.00;;;;;;;22.07;51.67;98760.64;106744;1284;22581;-92
2022/06/21 12:18:12;;;;;;;;;;;;;;;;;;;;;
2022/06/21 12:21:27;;;;;;;2.90;0.70;;;;;;;23.00;51.77;98750.06;107344;1279;22485;-92
2022/06/21 12:24:57;;;;;;;;;;;;;;;;;;;;;
2022/06/21 12:27:53;;;;;;;;;;;;;;;;;;;;;
2022/06/21 12:30:30;;;;;;;4.20;0.90;;;;;;;22.37;51.30;98748.84;107463;1264;22573;-87
2022/06/21 12:33:49;;;;;;;3.50;0.70;;;;;;;22.58;50.96;98749.64;107328;1274;22477;-90
2022/06/21 12:40:01;;;;;;;4.50;0.90;;;;;;;22.49;51.27;98750.43;106750;1278;22555;-84
2022/06/21 12:43:14;;;;;;;4.80;0.90;;;;;;;22.74;50.47;98751.03;107095;1279;22660;-84
2022/06/21 12:46:48;;;;;;;4.90;1.00;;;;;;;22.63;50.18;98751.73;108137;1265;23954;-90
2022/06/21 12:50:12;;;;;;;3.00;0.90;;;;;;;22.48;49.78;98747.48;107397;1276;24067;-86
2022/06/21 12:53:53;;;;;;;;;;;;;;;;;;;;;
2022/06/21 12:57:22;;;;;;;3.70;0.90;;;;;;;22.87;49.58;98742.30;106967;1277;23542;-90
2022/06/21 13:00:29;;;;;;;3.70;0.90;;;;;;;22.63;49.99;98744.08;107468;1279;22564;-93
2022/06/21 13:04:11;;;;;;;3.80;0.80;;;;;;;22.66;50.08;98737.35;107561;1279;25338;-90
2022/06/21 13:07:50;;;;;;;;;;;;;;;;;;;;;
2022/06/21 13:10:59;;;;;;;4.30;0.90;;;;;;;22.05;49.64;98739.50;107881;1279;22681;-90
2022/06/21 13:14:19;;;;;;;3.10;0.90;;;;;;;22.27;50.00;98731.45;107841;1277;24107;-92
2022/06/21 13:20:57;;;;;;;2.60;0.70;;;;;;;22.58;50.00;98718.69;109277;1265;22631;-93
2022/06/21 13:24:00;;;;;;;3.40;0.70;;;;;;;22.60;49.19;98723.82;106971;1284;25262;-88
2022/06/21 13:26:45;;;;;;;5.40;0.90;;;;;;;22.37;49.23;98726.65;106615;1284;24329;-92
2022/06/21 13:31:21;;;;;;;4.40;0.80;;;;;;;22.10;49.19;98721.97;107059;1284;22492;-90
2022/06/21 13:34:25;;;;;;;3.20;0.80;;;;;;;22.27;49.16;98720.37;106017;1290;24430;-86
2022/06/21 13:37:59;;;;;;;;;;;;;;;;;;;;;
2022/06/21 13:45:00;;;;;;;4.60;0.70;;;;;;;22.67;48.66;98707.67;104721;1297;22835;-89
2022/06/21 13:48:29;;;;;;;5.30;0.90;;;;;;;22.99;48.14;98702.85;105145;1297;23293;-89
2022/06/21 13:51:38;;;;;;;3.70;0.80;;;;;;;23.33;48.50;98708.44;105004;1305;22819;-87
2022/06/21 13:55:01;;;;;;;;;;;;;;;;;;;;;
2022/06/21 13:58:46;;;;;;;4.40;1.00;;;;;;;23.39;48.00;98698.91;104631;1309;22599;-87
2022/06/21 14:02:35;;;;;;;;;;;;;;;;;;;;;
2022/06/21 14:05:31;;;;;;;4.70;0.80;;;;;;;23.80;46.73;98697.38;103680;1308;25500;-87
2022/06/21 14:08:36;;;;;;;5.00;1.00;;;;;;;23.76;46.95;98696.85;103367;1308;24539;-88
2022/06/21 14:12:06;;;;;;;4.70;1.00;;;;;;;23.57;46.46;98702.48;103102;1311;25334;-85
2022/06/21 14:15:28;;;;;;;3.60;0.70;;;;;;;23.64;46.48;98702.55;102841;1312;22639;-90
2022/06/21 14:18:56;;;;;;;;;;;;;;;;;;;;;
2022/06/21 14:22:50;;;;;;;3.60;0.70;;;;;;;23.26;46.32;98698.08;103628;1305;22592;-86
2022/06/21 14:26:43;;;;;;;4.40;0.80;;;;;;;22.79;46.28;98703.64;103884;1305;25469;-87
2022/06/21 14:29:40;;;;;;;;;;;;;;;;;;;;;
2022/06/21 14:33:29;;;;;;;;;;;;;;;;;;;;;
2022/06/21 14:37:26;;;;;;;;;;;;;;;;;;;;;
2022/06/21 14:41:13;;;;;;;;;;;;;;;;;;;;;
2022/06/21 14:44:59;;;;;;;4.90;0.80;;;;;;;22.25;46.28;98693.09;105656;1302;22902;-88
2022/06/21 14:48:30;;;;;;;5.40;1.30;;;;;;;22.53;46.52;98687.61;105752;1302;22698;-93
2022/06/21 14:52:31;;;;;;;;;;;;;;;;;;;;;
2022/06/21 14:56:23;;;;;;;4.50;0.60;;;;;;;23.77;46.29;98691.69;105822;1300;22543;-85
2022/06/21 14:59:35;;;;;;;3.40;0.90;;;;;;;23.98;45.36;98688.16;105563;1300;22628;-90
2022/06/21 15:03:54;;;;;;;;;;;;;;;;;;;;;
2022/06/21 15:07:21;;;;;;;2.70;0.70;;;;;;;22.88;44.78;98687.40;104768;1299;25922;-86
2022/06/21 15:10:50;;;;;;;;;;;;;;;;;;;;;
2022/06/21 15:14:24;;;;;;;3.30;0.70;;;;;;;23.17;45.22;98684.57;106577;1290;22793;-89
2022/06/21 15:21:27;;;;;;;2.80;0.70;;;;;;;24.14;45.26;98678.84;107199;1284;22737;-88
2022/06/21 15:24:31;;;;;;;3.50;0.70;;;;;;;24.82;44.97;98671.52;107834;1279;25395;-86
2022/06/21 15:27:30;;;;;;;;;;;;;;;;;;;;;
2022/06/21 15:31:19;;;;;;;;;;;;;;;;;;;;;
2022/06/21 15:34:19;;;;;;;3.50;0.90;;;;;;;26.13;44.69;98662.96;107701;1279;22673;-92
2022/06/21 15:37:52;;;;;;;;;;;;;;;;;;;;;
2022/06/21 15:41:21;;;;;;;;;;;;;;;;;;;;;
2022/06/21 15:50:48;;;;;;;3.90;1.30;;;;;;;28.74;43.40;98641.39;107815;1279;22540;-93
2022/06/21 15:53:54;;;;;;;2.00;0.90;;;;;;;28.99;42.59;98648.45;106880;1279;24189;-92
2022/06/21 15:56:57;;;;;;;;;;;;;;;;;;;;;
2022/06/21 16:00:17;;;;;;;5.40;1.00;;;;;;;28.81;42.62;98654.16;108239;1279;22570;-90
2022/06/21 16:03:25;;;;;;;;;;;;;;;;;;;;;
2022/06/21 16:06:59;;;;;;;4.50;1.20;;;;;;;28.59;41.19;98656.36;106987;1271;23358;-92
2022/06/21 16:09:55;;;;;;;3.60;1.00;;;;;;;28.34;41.90;98657.74;108561;1268;22597;-89
2022/06/21 16:12:52;;;;;;;2.50;1.10;;;;;;;28.72;42.53;98654.64;108813;1272;23892;-93
2022/06/21 16:15:29;;;;;;;4.90;1.20;;;;;;;29.50;42.54;98654.92;108481;1268;24269;-92
2022/06/21 16:18:14;;;;;;;2.80;0.90;;;;;;;29.99;41.59;98648.52;106603;1281;26125;-87
2022/06/21 16:20:50;;;;;;;3.60;1.30;;;;;;;29.76;40.97;98654.27;107028;1279;22735;-89
2022/06/21 16:23:48;;;;;;;4.80;1.10;;;;;;;29.28;40.65;98659.36;106582;1279;22535;-89
2022/06/21 16:27:22;;;;;;;4.50;1.00;;;;;;;27.75;40.88;98668.45;107308;1279;23974;-92
2022/06/21 16:30:15;;;;;;;4.80;1.20;;;;;;;26.30;41.77;98666.02;107927;1281;23863;-93
2022/06/21 16:33:17;;;;;;;4.60;1.00;;;;;;;25.49;41.44;98669.64;106813;1279;22552;-91
2022/06/21 16:36:26;;;;;;;;;;;;;;;;;;;;;
2022/06/21 16:39:41;;;;;;;5.80;1.00;;;;;;;23.77;41.15;98673.05;107484;1279;25527;-89
2022/06/21 16:43:12;;;;;;;;;;;;;;;;;;;;;
2022/06/21 16:46:41;;;;;;;4.60;1.20;;;;;;;23.07;41.86;98659.55;108288;1278;23964;-91
2022/06/21 16:50:04;;;;;;;4.40;1.00;;;;;;;23.46;42.26;98655.89;108798;1279;24248;-91
2022/06/21 16:52:58;;;;;;;4.20;1.00;;;;;;;23.18;41.58;98652.61;108119;1279;22667;-93
2022/06/21 16:56:13;;;;;;;4.10;0.90;;;;;;;22.76;41.58;98654.05;107422;1279;22550;-91
2022/06/21 16:59:32;;;;;;;;;;;;;;;;;;;;;
2022/06/21 17:02:32;;;;;;;;;;;;;;;;;;;;;
2022/06/21 17:05:44;;;;;;;3.40;1.00;;;;;;;22.43;42.26;98662.04;108570;1281;23954;-92
2022/06/21 17:08:48;;;;;;;5.20;1.10;;;;;;;22.29;41.69;98663.34;107562;1281;22737;-92
2022/06/21 17:14:51;;;;;;;;;;;;;;;;;;;;;
2022/06/21 17:21:04;;;;;;;6.90;2.70;;;;;;;22.21;42.06;98648.16;109594;1279;22495;-93
2022/06/21 17:27:35;;;;;;;5.40;1.10;;;;;;;21.92;42.03;98651.94;109550;1281;22472;-91
2022/06/21 17:31:00;;;;;;;5.30;1.30;;;;;;;21.72;42.07;98648.80;109518;1281;22470;-90
2022/06/21 17:34:06;;;;;;;;;;;;;;;;;;;;;
2022/06/21 17:37:40;;;;;;;;;;;;;;;;;;;;;
2022/06/21 17:40:45;;;;;;;6.80;1.80;;;;;;;21.45;42.53;98636.63;109563;1280;22535;-88
2022/06/21 17:44:31;;;;;;;;;;;;;;;;;;;;;
2022/06/21 17:48:03;;;;;;;7.00;1.50;;;;;;;21.36;43.06;98639.75;109538;1281;23148;-89
2022/06/21 17:51:31;;;;;;;;;;;;;;;;;;;;;
2022/06/21 17:55:01;;;;;;;;;;;;;;;;;;;;;
2022/06/21 17:57:56;;;;;;;;;;;;;;;;;;;;;
2022/06/21 18:01:05;;;;;;;8.80;1.40;;;;;;;21.08;42.97;98656.00;109590;1280;23163;-94
2022/06/21 18:04:41;;;;;;;;;;;;;;;;;;;;;
2022/06/21 18:14:35;;;;;;;;;;;;;;;;;;;;;
2022/06/21 18:17:58;;;;;;;;;;;;;;;;;;;;;
2022/06/21 18:21:43;;;;;;;;;;;;;;;;;;;;;
2022/06/21 18:25:49;;;;;;;4.80;1.20;;;;;;;20.38;42.91;98666.61;109136;1282;22595;-92
2022/06/21 18:29:25;;;;;;;;;;;;;;;;;;;;;
2022/06/21 18:33:27;;;;;;;;;;;;;;;;;;;;;
2022/06/21 18:37:21;;;;;;;4.90;1.20;;;;;;;19.99;42.63;98681.46;109395;1281;22511;-93
2022/06/21 18:41:10;;;;;;;;;;;;;;;;;;;;;
2022/06/21 18:45:09;;;;;;;;;;;;;;;;;;;;;
2022/06/21 18:49:07;;;;;;;3.70;1.10;;;;;;;19.59;43.64;98684.66;108446;1287;22448;-92
2022/06/21 18:52:35;;;;;;;;;;;;;;;;;;;;;
2022/06/21 18:56:13;;;;;;;;;;;;;;;;;;;;;
2022/06/21 18:59:52;;;;;;;5.20;0.80;;;;;;;19.21;43.33;98691.61;108431;1288;22667;-91
2022/06/21 19:03:40;;;;;;;;;;;;;;;;;;;;;
2022/06/21 19:11:28;;;;;;;4.40;1.00;;;;;;;18.80;43.76;98701.14;107655;1294;22366;-93
2022/06/21 19:14:54;;;;;;;;;;;;;;;;;;;;;
2022/06/21 19:18:40;;;;;;;7.60;1.20;;;;;;;18.55;43.85;98710.04;108313;1287;22412;-93
2022/06/21 19:21:55;;;;;;;8.80;1.30;;;;;;;18.42;44.24;98716.86;108848;1284;22513;-92
2022/06/21 19:25:19;;;;;;;;;;;;;;;;;;;;;
2022/06/21 19:28:38;;;;;;;4.80;1.40;;;;;;;18.27;44.22;98723.73;108916;1284;22601;-91
2022/06/21 19:35:36;;;;;;;;;;;;;;;;;;;;;
2022/06/21 19:39:04;;;;;;;;;;;;;;;;;;;;;
2022/06/21 19:42:59;;;;;;;6.90;1.40;;;;;;;17.95;44.71;98732.59;109554;1279;22478;-93
2022/06/21 19:47:04;;;;;;;7.00;1.70;;;;;;;17.82;44.60;98735.61;109493;1279;22488;-94
2022/06/21 19:54:47;;;;;;;7.80;1.50;;;;;;;17.61;45.07;98744.21;108448;1285;22560;-92
2022/06/21 19:58:24;;;;;;;8.70;2.00;;;;;;;17.51;45.06;98743.23;108566;1287;22554;-92
2022/06/21 20:01:47;;;;;;;8.10;1.60;;;;;;;17.44;45.33;98749.17;108536;1287;23158;-93
2022/06/21 20:05:54;;;;;;;6.90;1.60;;;;;;;17.35;45.34;98751.29;107883;1294;22428;-92
2022/06/21 20:09:01;;;;;;;9.60;1.80;;;;;;;17.21;45.26;98753.98;107865;1293;22588;-90
2022/06/21 20:11:15;;;;;;;6.10;1.70;;;;;;;17.09;45.59;98755.05;107808;1293;22913;-91
2022/06/21 20:14:38;;;;;;;4.80;1.40;;;;;;;17.03;45.56;98760.52;107654;1294;22202;-91
2022/06/21 20:18:09;;;;;;;4.30;1.30;;;;;;;16.96;45.74;98762.08;107751;1291;22534;-92
2022/06/21 20:21:19;;;;;;;7.10;2.00;;;;;;;16.92;45.86;98759.10;107914;1292;23695;-89
2022/06/21 20:25:31;;;;;;;;;;;;;;;;;;;;;
2022/06/21 20:34:56;;;;;;;;;;;;;;;;;;;;;
2022/06/21 20:38:07;;;;;;;16.20;6.30;;;;;;;16.58;46.41;98761.88;109510;1282;22545;-93
2022/06/21 20:45:23;;;;;;;14.90;4.70;;;;;;;16.34;46.93;98774.66;109491;1281;22463;-92
2022/06/21 20:48:39;;;;;;;9.00;2.80;;;;;;;16.30;47.28;98779.20;109225;1281;22440;-91
2022/06/21 20:52:33;;;;;;;;;;;;;;;;;;;;;
2022/06/21 20:57:07;;;;;;;8.50;2.00;;;;;;;16.10;47.18;98782.52;108171;1290;22571;-94
2022/06/21 21:00:07;;;;;;;7.20;1.80;;;;;;;16.01;47.32;98788.13;108106;1290;22590;-93
2022/06/21 21:03:42;;;;;;;5.80;1.70;;;;;;;15.91;47.45;98787.59;107536;1296;22508;-94
2022/06/21 21:06:33;;;;;;;5.40;1.70;;;;;;;15.86;47.46;98786.85;107563;1294;22465;-92
2022/06/21 21:09:47;;;;;;;6.00;1.60;;;;;;;15.82;47.45;98785.41;107479;1297;22469;-95
2022/06/21 21:12:57;;;;;;;;;;;;;;;;;;;;;
2022/06/21 21:18:42;;;;;;;;;;;;;;;;;;;;;
2022/06/21 21:21:41;;;;;;;;;;;;;;;;;;;;;
2022/06/21 21:24:45;;;;;;;;;;;;;;;;;;;;;
2022/06/21 21:27:48;;;;;;;;;;;;;;;;;;;;;
2022/06/21 21:33:53;;;;;;;;;;;;;;;;;;;;;
2022/06/21 21:40:11;;;;;;;;;;;;;;;;;;;;;
2022/06/21 21:43:17;;;;;;;;;;;;;;;;;;;;;
2022/06/21 21:53:20;;;;;;;10.90;3.40;;;;;;;15.12;49.50;98712.74;109596;1281;22198;-92
2022/06/21 21:56:12;;;;;;;;;;;;;;;;;;;;;
2022/06/21 22:00:09;;;;;;;;;;;;;;;;;;;;;
2022/06/21 22:03:20;;;;;;;10.60;3.20;;;;;;;14.84;50.00;98716.73;108451;1287;22579;-92
2022/06/21 22:06:45;;;;;;;;;;;;;;;;;;;;;
2022/06/21 22:10:38;;;;;;;;;;;;;;;;;;;;;
2022/06/21 22:13:52;;;;;;;11.80;3.10;;;;;;;14.59;50.40;98732.55;109548;1281;23117;-91
2022/06/21 22:17:20;;;;;;;11.30;3.50;;;;;;;14.50;50.61;98730.31;109575;1279;22407;-92
2022/06/21 22:20:51;;;;;;;;;;;;;;;;;;;;;
2022/06/21 22:24:07;;;;;;;;;;;;;;;;;;;;;
2022/06/21 22:30:26;;;;;;;16.10;4.60;;;;;;;14.26;50.97;98766.02;107867;1293;22622;-92
2022/06/21 22:34:08;;;;;;;;;;;;;;;;;;;;;
2022/06/21 22:37:46;;;;;;;12.70;3.90;;;;;;;14.41;51.18;98768.40;107935;1292;23217;-91